sensor_id;sensor_type;location;lat;lon;timestamp;temperature;humidity
69082;DHT22;56184;51.986;5.760;2023-02-28T01:28:42;0.50;95.40
69082;DHT22;56184;51.986;5.760;2023-02-28T01:31:09;0.50;95.80
69082;DHT22;56184;51.986;5.760;2023-02-28T01:33:35;0.50;95.80
69082;DHT22;56184;51.986;5.760;2023-02-28T01:36:04;0.60;96.00
69082;DHT22;56184;51.986;5.760;2023-02-28T01:38:30;0.60;96.00
69082;DHT22;56184;51.986;5.760;2023-02-28T01:40:57;0.60;96.00
69082;DHT22;56184;51.986;5.760;2023-02-28T01:43:31;0.60;96.30
69082;DHT22;56184;51.986;5.760;2023-02-28T01:45:58;0.70;96.40
69082;DHT22;56184;51.986;5.760;2023-02-28T01:48:28;0.70;96.50
69082;DHT22;56184;51.986;5.760;2023-02-28T01:51:00;0.70;96.50
69082;DHT22;56184;51.986;5.760;2023-02-28T01:53:35;0.70;96.50
69082;DHT22;56184;51.986;5.760;2023-02-28T01:56:05;0.70;96.60
69082;DHT22;56184;51.986;5.760;2023-02-28T01:58:31;0.80;96.60
69082;DHT22;56184;51.986;5.760;2023-02-28T02:00:57;0.80;96.50
69082;DHT22;56184;51.986;5.760;2023-02-28T02:03:26;0.80;96.60
69082;DHT22;56184;51.986;5.760;2023-02-28T02:05:52;0.80;96.60
69082;DHT22;56184;51.986;5.760;2023-02-28T02:08:21;0.90;96.70
69082;DHT22;56184;51.986;5.760;2023-02-28T02:10:50;0.90;96.70
69082;DHT22;56184;51.986;5.760;2023-02-28T02:18:52;1.00;96.60
69082;DHT22;56184;51.986;5.760;2023-02-28T02:32:14;1.10;96.90
69082;DHT22;56184;51.986;5.760;2023-02-28T02:37:27;1.10;97.00
69082;DHT22;56184;51.986;5.760;2023-02-28T02:40:16;1.10;97.00
69082;DHT22;56184;51.986;5.760;2023-02-28T02:43:01;1.10;97.10
69082;DHT22;56184;51.986;5.760;2023-02-28T02:45:41;1.20;97.00
69082;DHT22;56184;51.986;5.760;2023-02-28T02:48:10;1.20;97.10
69082;DHT22;56184;51.986;5.760;2023-02-28T02:50:44;1.20;97.10
69082;DHT22;56184;51.986;5.760;2023-02-28T02:53:11;1.20;97.20
69082;DHT22;56184;51.986;5.760;2023-02-28T02:55:40;1.20;97.20
69082;DHT22;56184;51.986;5.760;2023-02-28T02:58:11;1.30;97.20
69082;DHT22;56184;51.986;5.760;2023-02-28T03:00:42;1.30;97.10
69082;DHT22;56184;51.986;5.760;2023-02-28T03:03:13;1.30;97.00
69082;DHT22;56184;51.986;5.760;2023-02-28T03:05:47;1.30;97.00
69082;DHT22;56184;51.986;5.760;2023-02-28T03:08:13;1.40;97.00
69082;DHT22;56184;51.986;5.760;2023-02-28T03:10:42;1.40;97.30
69082;DHT22;56184;51.986;5.760;2023-02-28T03:19:34;1.40;97.20
69082;DHT22;56184;51.986;5.760;2023-02-28T03:27:43;1.50;96.60
69082;DHT22;56184;51.986;5.760;2023-02-28T03:30:27;1.50;97.30
69082;DHT22;56184;51.986;5.760;2023-02-28T03:36:16;1.50;96.90
69082;DHT22;56184;51.986;5.760;2023-02-28T03:41:30;1.50;97.30
69082;DHT22;56184;51.986;5.760;2023-02-28T03:44:01;1.50;97.20
69082;DHT22;56184;51.986;5.760;2023-02-28T03:46:32;1.50;97.30
69082;DHT22;56184;51.986;5.760;2023-02-28T03:49:11;1.60;97.40
69082;DHT22;56184;51.986;5.760;2023-02-28T03:51:41;1.60;97.20
69082;DHT22;56184;51.986;5.760;2023-02-28T03:54:13;1.60;97.30
69082;DHT22;56184;51.986;5.760;2023-02-28T03:59:28;1.70;96.70
69082;DHT22;56184;51.986;5.760;2023-02-28T04:01:54;1.70;96.90
69082;DHT22;56184;51.986;5.760;2023-02-28T04:04:20;1.70;96.10
69082;DHT22;56184;51.986;5.760;2023-02-28T04:06:50;1.70;95.90
69082;DHT22;56184;51.986;5.760;2023-02-28T04:09:16;1.80;95.90
69082;DHT22;56184;51.986;5.760;2023-02-28T04:11:50;1.80;95.30
69082;DHT22;56184;51.986;5.760;2023-02-28T04:14:18;1.80;95.40
69082;DHT22;56184;51.986;5.760;2023-02-28T04:16:44;1.80;95.30
69082;DHT22;56184;51.986;5.760;2023-02-28T04:19:11;1.80;95.40
69082;DHT22;56184;51.986;5.760;2023-02-28T04:21:42;1.80;95.50
69082;DHT22;56184;51.986;5.760;2023-02-28T04:24:15;1.80;95.80
69082;DHT22;56184;51.986;5.760;2023-02-28T04:26:43;1.90;95.70
69082;DHT22;56184;51.986;5.760;2023-02-28T04:29:11;1.90;95.40
69082;DHT22;56184;51.986;5.760;2023-02-28T04:31:37;1.90;95.40
69082;DHT22;56184;51.986;5.760;2023-02-28T04:34:03;1.90;95.30
69082;DHT22;56184;51.986;5.760;2023-02-28T04:36:28;1.90;95.60
69082;DHT22;56184;51.986;5.760;2023-02-28T04:38:54;1.90;95.70
69082;DHT22;56184;51.986;5.760;2023-02-28T04:41:20;1.90;95.70
69082;DHT22;56184;51.986;5.760;2023-02-28T04:43:46;1.90;95.30
69082;DHT22;56184;51.986;5.760;2023-02-28T04:46:12;1.90;95.20
69082;DHT22;56184;51.986;5.760;2023-02-28T04:48:39;1.90;95.30
69082;DHT22;56184;51.986;5.760;2023-02-28T04:51:09;1.90;95.40
69082;DHT22;56184;51.986;5.760;2023-02-28T04:53:37;1.90;95.00
69082;DHT22;56184;51.986;5.760;2023-02-28T04:56:04;2.00;95.00
69082;DHT22;56184;51.986;5.760;2023-02-28T04:58:31;2.00;95.10
69082;DHT22;56184;51.986;5.760;2023-02-28T05:01:15;1.90;94.80
69082;DHT22;56184;51.986;5.760;2023-02-28T05:03:42;2.00;94.90
69082;DHT22;56184;51.986;5.760;2023-02-28T05:06:09;2.00;94.90
69082;DHT22;56184;51.986;5.760;2023-02-28T05:08:35;2.00;94.70
69082;DHT22;56184;51.986;5.760;2023-02-28T05:11:01;2.00;94.60
69082;DHT22;56184;51.986;5.760;2023-02-28T05:13:27;2.00;94.90
69082;DHT22;56184;51.986;5.760;2023-02-28T05:15:53;2.00;94.70
69082;DHT22;56184;51.986;5.760;2023-02-28T05:18:19;2.00;94.80
69082;DHT22;56184;51.986;5.760;2023-02-28T05:20:44;2.00;94.80
69082;DHT22;56184;51.986;5.760;2023-02-28T05:23:14;2.00;94.60
69082;DHT22;56184;51.986;5.760;2023-02-28T05:25:40;2.00;94.40
69082;DHT22;56184;51.986;5.760;2023-02-28T05:28:07;2.00;94.90
69082;DHT22;56184;51.986;5.760;2023-02-28T05:30:33;2.00;94.90
69082;DHT22;56184;51.986;5.760;2023-02-28T05:32:59;2.00;95.00
69082;DHT22;56184;51.986;5.760;2023-02-28T05:35:25;2.00;95.00
69082;DHT22;56184;51.986;5.760;2023-02-28T05:37:51;2.00;94.90
69082;DHT22;56184;51.986;5.760;2023-02-28T05:40:17;2.00;95.10
69082;DHT22;56184;51.986;5.760;2023-02-28T05:42:43;2.00;95.00
69082;DHT22;56184;51.986;5.760;2023-02-28T05:45:09;2.00;95.10
69082;DHT22;56184;51.986;5.760;2023-02-28T05:47:35;2.00;95.20
69082;DHT22;56184;51.986;5.760;2023-02-28T05:50:01;2.00;95.10
69082;DHT22;56184;51.986;5.760;2023-02-28T05:52:28;2.00;95.00
69082;DHT22;56184;51.986;5.760;2023-02-28T05:54:55;2.00;95.10
69082;DHT22;56184;51.986;5.760;2023-02-28T05:57:21;2.00;94.90
69082;DHT22;56184;51.986;5.760;2023-02-28T05:59:49;2.00;95.00
69082;DHT22;56184;51.986;5.760;2023-02-28T06:02:17;2.00;94.90
69082;DHT22;56184;51.986;5.760;2023-02-28T06:04:43;2.00;94.50
69082;DHT22;56184;51.986;5.760;2023-02-28T06:07:09;2.00;94.60
69082;DHT22;56184;51.986;5.760;2023-02-28T06:09:35;2.00;95.10
69082;DHT22;56184;51.986;5.760;2023-02-28T06:12:03;2.00;95.20
69082;DHT22;56184;51.986;5.760;2023-02-28T06:14:29;2.00;95.00
69082;DHT22;56184;51.986;5.760;2023-02-28T06:16:57;2.00;95.20
69082;DHT22;56184;51.986;5.760;2023-02-28T06:19:22;2.00;94.90
69082;DHT22;56184;51.986;5.760;2023-02-28T06:21:52;2.00;94.90
69082;DHT22;56184;51.986;5.760;2023-02-28T06:24:19;2.00;95.20
69082;DHT22;56184;51.986;5.760;2023-02-28T06:26:45;2.10;95.10
69082;DHT22;56184;51.986;5.760;2023-02-28T06:29:10;2.00;94.80
69082;DHT22;56184;51.986;5.760;2023-02-28T06:31:36;2.10;95.00
69082;DHT22;56184;51.986;5.760;2023-02-28T06:34:03;2.10;95.10
69082;DHT22;56184;51.986;5.760;2023-02-28T06:36:29;2.10;95.00
69082;DHT22;56184;51.986;5.760;2023-02-28T06:38:58;2.10;95.20
69082;DHT22;56184;51.986;5.760;2023-02-28T06:41:25;2.10;95.40
69082;DHT22;56184;51.986;5.760;2023-02-28T06:43:52;2.10;95.50
69082;DHT22;56184;51.986;5.760;2023-02-28T06:46:18;2.10;95.60
69082;DHT22;56184;51.986;5.760;2023-02-28T06:48:44;2.10;95.30
69082;DHT22;56184;51.986;5.760;2023-02-28T06:51:16;2.10;95.30
69082;DHT22;56184;51.986;5.760;2023-02-28T06:53:42;2.20;95.00
69082;DHT22;56184;51.986;5.760;2023-02-28T06:56:11;2.20;94.90
69082;DHT22;56184;51.986;5.760;2023-02-28T06:58:37;2.20;94.90
69082;DHT22;56184;51.986;5.760;2023-02-28T07:01:05;2.20;94.80
69082;DHT22;56184;51.986;5.760;2023-02-28T07:03:30;2.30;94.70
69082;DHT22;56184;51.986;5.760;2023-02-28T07:05:56;2.20;94.60
69082;DHT22;56184;51.986;5.760;2023-02-28T07:08:23;2.30;94.60
69082;DHT22;56184;51.986;5.760;2023-02-28T07:10:52;2.30;94.70
69082;DHT22;56184;51.986;5.760;2023-02-28T07:13:18;2.30;94.60
69082;DHT22;56184;51.986;5.760;2023-02-28T07:15:44;2.40;94.10
69082;DHT22;56184;51.986;5.760;2023-02-28T07:18:09;2.40;94.20
69082;DHT22;56184;51.986;5.760;2023-02-28T07:20:38;2.40;94.70
69082;DHT22;56184;51.986;5.760;2023-02-28T07:23:04;2.50;94.90
69082;DHT22;56184;51.986;5.760;2023-02-28T07:25:30;2.50;94.70
69082;DHT22;56184;51.986;5.760;2023-02-28T07:27:56;2.60;94.90
69082;DHT22;56184;51.986;5.760;2023-02-28T07:30:22;2.60;94.90
69082;DHT22;56184;51.986;5.760;2023-02-28T07:32:48;2.70;94.90
69082;DHT22;56184;51.986;5.760;2023-02-28T07:35:13;2.70;94.50
69082;DHT22;56184;51.986;5.760;2023-02-28T07:37:41;2.80;94.60
69082;DHT22;56184;51.986;5.760;2023-02-28T07:40:10;2.90;94.30
69082;DHT22;56184;51.986;5.760;2023-02-28T07:42:40;2.90;94.20
69082;DHT22;56184;51.986;5.760;2023-02-28T07:45:07;3.00;93.90
69082;DHT22;56184;51.986;5.760;2023-02-28T07:47:33;3.10;93.60
69082;DHT22;56184;51.986;5.760;2023-02-28T07:49:59;3.10;93.30
69082;DHT22;56184;51.986;5.760;2023-02-28T07:52:25;3.20;93.10
69082;DHT22;56184;51.986;5.760;2023-02-28T07:54:51;3.30;89.40
69082;DHT22;56184;51.986;5.760;2023-02-28T07:57:17;3.40;85.40
69082;DHT22;56184;51.986;5.760;2023-02-28T07:59:43;3.50;84.10
69082;DHT22;56184;51.986;5.760;2023-02-28T08:02:18;3.70;83.60
69082;DHT22;56184;51.986;5.760;2023-02-28T08:04:47;3.80;84.80
69082;DHT22;56184;51.986;5.760;2023-02-28T08:07:14;3.90;81.40
69082;DHT22;56184;51.986;5.760;2023-02-28T08:09:40;4.00;77.80
69082;DHT22;56184;51.986;5.760;2023-02-28T08:12:09;4.00;76.60
69082;DHT22;56184;51.986;5.760;2023-02-28T08:14:35;4.00;76.80
69082;DHT22;56184;51.986;5.760;2023-02-28T08:17:01;4.00;72.80
69082;DHT22;56184;51.986;5.760;2023-02-28T08:19:27;4.10;76.60
69082;DHT22;56184;51.986;5.760;2023-02-28T08:21:53;4.00;72.40
69082;DHT22;56184;51.986;5.760;2023-02-28T08:24:19;4.00;74.80
69082;DHT22;56184;51.986;5.760;2023-02-28T08:26:45;4.00;74.40
69082;DHT22;56184;51.986;5.760;2023-02-28T08:29:10;4.00;73.20
69082;DHT22;56184;51.986;5.760;2023-02-28T08:31:36;4.10;75.10
69082;DHT22;56184;51.986;5.760;2023-02-28T08:34:10;4.10;71.20
69082;DHT22;56184;51.986;5.760;2023-02-28T08:36:37;4.10;74.10
69082;DHT22;56184;51.986;5.760;2023-02-28T08:39:03;4.20;70.80
69082;DHT22;56184;51.986;5.760;2023-02-28T08:41:29;4.20;70.20
69082;DHT22;56184;51.986;5.760;2023-02-28T08:43:55;4.30;70.90
69082;DHT22;56184;51.986;5.760;2023-02-28T08:46:21;4.40;71.50
69082;DHT22;56184;51.986;5.760;2023-02-28T08:48:46;4.50;72.50
69082;DHT22;56184;51.986;5.760;2023-02-28T08:51:16;4.50;69.60
69082;DHT22;56184;51.986;5.760;2023-02-28T08:53:44;4.50;72.30
69082;DHT22;56184;51.986;5.760;2023-02-28T08:56:12;4.60;71.70
69082;DHT22;56184;51.986;5.760;2023-02-28T08:58:38;4.60;69.80
69082;DHT22;56184;51.986;5.760;2023-02-28T09:01:15;4.60;70.20
69082;DHT22;56184;51.986;5.760;2023-02-28T09:03:42;4.60;72.00
69082;DHT22;56184;51.986;5.760;2023-02-28T09:06:09;4.60;71.70
69082;DHT22;56184;51.986;5.760;2023-02-28T09:08:36;4.60;71.70
69082;DHT22;56184;51.986;5.760;2023-02-28T09:11:01;4.50;69.90
69082;DHT22;56184;51.986;5.760;2023-02-28T09:13:29;4.50;70.30
69082;DHT22;56184;51.986;5.760;2023-02-28T09:16:01;4.50;69.20
69082;DHT22;56184;51.986;5.760;2023-02-28T09:18:27;4.60;71.50
69082;DHT22;56184;51.986;5.760;2023-02-28T09:20:53;4.70;72.00
69082;DHT22;56184;51.986;5.760;2023-02-28T09:23:19;4.60;67.80
69082;DHT22;56184;51.986;5.760;2023-02-28T09:25:50;4.50;65.40
69082;DHT22;56184;51.986;5.760;2023-02-28T09:28:17;4.40;64.70
69082;DHT22;56184;51.986;5.760;2023-02-28T09:30:49;4.50;66.50
69082;DHT22;56184;51.986;5.760;2023-02-28T09:33:16;4.50;67.50
69082;DHT22;56184;51.986;5.760;2023-02-28T09:35:58;4.60;73.80
69082;DHT22;56184;51.986;5.760;2023-02-28T09:38:24;4.70;72.40
69082;DHT22;56184;51.986;5.760;2023-02-28T09:40:52;4.80;71.30
69082;DHT22;56184;51.986;5.760;2023-02-28T09:43:22;4.80;64.10
69082;DHT22;56184;51.986;5.760;2023-02-28T09:45:54;4.80;63.30
69082;DHT22;56184;51.986;5.760;2023-02-28T09:48:31;4.80;62.00
69082;DHT22;56184;51.986;5.760;2023-02-28T09:51:05;4.70;57.90
69082;DHT22;56184;51.986;5.760;2023-02-28T09:53:38;4.70;60.00
69082;DHT22;56184;51.986;5.760;2023-02-28T09:58:49;4.70;61.00
69082;DHT22;56184;51.986;5.760;2023-02-28T10:01:34;4.90;63.60
69082;DHT22;56184;51.986;5.760;2023-02-28T10:04:12;4.80;58.60
69082;DHT22;56184;51.986;5.760;2023-02-28T10:06:46;4.80;58.60
69082;DHT22;56184;51.986;5.760;2023-02-28T10:09:32;5.20;73.00
69082;DHT22;56184;51.986;5.760;2023-02-28T10:12:05;5.20;63.50
69082;DHT22;56184;51.986;5.760;2023-02-28T10:14:33;5.40;60.10
69082;DHT22;56184;51.986;5.760;2023-02-28T10:17:12;5.60;71.30
69082;DHT22;56184;51.986;5.760;2023-02-28T10:19:51;5.70;64.50
69082;DHT22;56184;51.986;5.760;2023-02-28T10:24:54;6.10;59.50
69082;DHT22;56184;51.986;5.760;2023-02-28T10:27:28;6.30;60.20
69082;DHT22;56184;51.986;5.760;2023-02-28T10:29:56;6.60;65.10
69082;DHT22;56184;51.986;5.760;2023-02-28T10:32:30;6.70;61.20
69082;DHT22;56184;51.986;5.760;2023-02-28T10:35:15;6.70;58.10
69082;DHT22;56184;51.986;5.760;2023-02-28T10:37:43;6.70;57.10
69082;DHT22;56184;51.986;5.760;2023-02-28T10:40:25;6.90;59.90
69082;DHT22;56184;51.986;5.760;2023-02-28T10:45:25;7.60;60.00
69082;DHT22;56184;51.986;5.760;2023-02-28T10:47:58;8.00;58.60
69082;DHT22;56184;51.986;5.760;2023-02-28T10:50:32;8.40;59.30
69082;DHT22;56184;51.986;5.760;2023-02-28T11:01:43;10.40;53.30
69082;DHT22;56184;51.986;5.760;2023-02-28T11:07:00;11.20;56.00
69082;DHT22;56184;51.986;5.760;2023-02-28T11:09:50;11.70;58.00
69082;DHT22;56184;51.986;5.760;2023-02-28T11:15:00;12.80;57.60
69082;DHT22;56184;51.986;5.760;2023-02-28T11:17:29;12.90;55.40
69082;DHT22;56184;51.986;5.760;2023-02-28T11:20:02;13.30;60.90
69082;DHT22;56184;51.986;5.760;2023-02-28T11:22:32;14.00;46.50
69082;DHT22;56184;51.986;5.760;2023-02-28T11:25:07;14.70;54.50
69082;DHT22;56184;51.986;5.760;2023-02-28T11:30:03;16.10;57.20
69082;DHT22;56184;51.986;5.760;2023-02-28T11:32:30;16.50;53.60
69082;DHT22;56184;51.986;5.760;2023-02-28T11:37:37;17.50;47.60
69082;DHT22;56184;51.986;5.760;2023-02-28T11:40:13;17.30;44.30
69082;DHT22;56184;51.986;5.760;2023-02-28T11:45:54;17.90;43.30
69082;DHT22;56184;51.986;5.760;2023-02-28T11:48:27;18.10;56.70
69082;DHT22;56184;51.986;5.760;2023-02-28T11:57:00;19.50;58.00
69082;DHT22;56184;51.986;5.760;2023-02-28T12:04:42;21.20;49.40
69082;DHT22;56184;51.986;5.760;2023-02-28T12:10:17;21.30;41.30
69082;DHT22;56184;51.986;5.760;2023-02-28T12:13:29;22.00;40.40
69082;DHT22;56184;51.986;5.760;2023-02-28T12:19:06;23.60;49.80
69082;DHT22;56184;51.986;5.760;2023-02-28T12:26:44;24.80;41.80
69082;DHT22;56184;51.986;5.760;2023-02-28T12:29:19;23.90;47.20
69082;DHT22;56184;51.986;5.760;2023-02-28T12:32:09;24.30;47.60
69082;DHT22;56184;51.986;5.760;2023-02-28T12:35:02;24.60;51.50
69082;DHT22;56184;51.986;5.760;2023-02-28T12:37:45;25.00;39.20
69082;DHT22;56184;51.986;5.760;2023-02-28T12:40:21;24.90;38.00
69082;DHT22;56184;51.986;5.760;2023-02-28T12:42:53;24.20;36.20
69082;DHT22;56184;51.986;5.760;2023-02-28T12:45:24;23.80;37.10
69082;DHT22;56184;51.986;5.760;2023-02-28T12:48:04;23.70;42.50
69082;DHT22;56184;51.986;5.760;2023-02-28T12:50:32;23.70;40.90
69082;DHT22;56184;51.986;5.760;2023-02-28T12:53:33;23.40;42.80
69082;DHT22;56184;51.986;5.760;2023-02-28T12:58:51;22.20;34.00
69082;DHT22;56184;51.986;5.760;2023-02-28T13:04:45;22.10;36.70
69082;DHT22;56184;51.986;5.760;2023-02-28T13:07:55;21.70;43.50
69082;DHT22;56184;51.986;5.760;2023-02-28T13:10:22;21.60;38.50
69082;DHT22;56184;51.986;5.760;2023-02-28T13:12:52;21.70;39.70
69082;DHT22;56184;51.986;5.760;2023-02-28T13:15:26;21.90;34.70
69082;DHT22;56184;51.986;5.760;2023-02-28T13:17:56;21.80;35.90
69082;DHT22;56184;51.986;5.760;2023-02-28T13:20:47;21.70;33.30
69082;DHT22;56184;51.986;5.760;2023-02-28T13:26:22;23.10;28.10
69082;DHT22;56184;51.986;5.760;2023-02-28T13:31:18;24.90;34.20
69082;DHT22;56184;51.986;5.760;2023-02-28T13:38:49;26.30;33.30
69082;DHT22;56184;51.986;5.760;2023-02-28T13:44:23;27.50;29.00
69082;DHT22;56184;51.986;5.760;2023-02-28T13:52:07;27.10;27.30
69082;DHT22;56184;51.986;5.760;2023-02-28T13:55:08;27.50;27.00
69082;DHT22;56184;51.986;5.760;2023-02-28T14:11:31;29.40;27.20
69082;DHT22;56184;51.986;5.760;2023-02-28T14:13:57;29.10;22.50
69082;DHT22;56184;51.986;5.760;2023-02-28T14:16:42;29.40;24.90
69082;DHT22;56184;51.986;5.760;2023-02-28T14:19:27;29.30;27.90
69082;DHT22;56184;51.986;5.760;2023-02-28T14:28:06;29.10;23.30
69082;DHT22;56184;51.986;5.760;2023-02-28T14:34:12;28.80;23.10
69082;DHT22;56184;51.986;5.760;2023-02-28T14:39:06;28.90;21.60
69082;DHT22;56184;51.986;5.760;2023-02-28T14:41:37;28.80;22.90
69082;DHT22;56184;51.986;5.760;2023-02-28T14:44:22;28.00;25.00
69082;DHT22;56184;51.986;5.760;2023-02-28T14:47:00;28.00;22.80
69082;DHT22;56184;51.986;5.760;2023-02-28T14:49:36;27.80;26.30
69082;DHT22;56184;51.986;5.760;2023-02-28T14:54:38;27.90;23.70
69082;DHT22;56184;51.986;5.760;2023-02-28T14:57:04;27.90;21.40
69082;DHT22;56184;51.986;5.760;2023-02-28T14:59:33;27.80;21.90
69082;DHT22;56184;51.986;5.760;2023-02-28T15:02:21;28.20;24.30
69082;DHT22;56184;51.986;5.760;2023-02-28T15:04:59;27.50;23.30
69082;DHT22;56184;51.986;5.760;2023-02-28T15:07:26;27.00;23.30
69082;DHT22;56184;51.986;5.760;2023-02-28T15:10:22;26.60;23.10
69082;DHT22;56184;51.986;5.760;2023-02-28T15:13:02;25.50;24.40
69082;DHT22;56184;51.986;5.760;2023-02-28T15:15:52;25.50;22.70
69082;DHT22;56184;51.986;5.760;2023-02-28T15:21:19;24.80;23.00
69082;DHT22;56184;51.986;5.760;2023-02-28T15:23:50;24.30;23.60
69082;DHT22;56184;51.986;5.760;2023-02-28T15:26:18;24.00;25.10
69082;DHT22;56184;51.986;5.760;2023-02-28T15:28:45;22.80;24.90
69082;DHT22;56184;51.986;5.760;2023-02-28T15:31:26;21.90;25.10
69082;DHT22;56184;51.986;5.760;2023-02-28T15:33:54;21.40;29.50
69082;DHT22;56184;51.986;5.760;2023-02-28T15:36:25;20.70;29.80
69082;DHT22;56184;51.986;5.760;2023-02-28T15:41:29;19.50;27.90
69082;DHT22;56184;51.986;5.760;2023-02-28T15:47:26;18.50;36.00
69082;DHT22;56184;51.986;5.760;2023-02-28T15:49:58;17.90;30.00
69082;DHT22;56184;51.986;5.760;2023-02-28T15:52:38;17.50;39.20
69082;DHT22;56184;51.986;5.760;2023-02-28T15:55:25;16.90;30.80
69082;DHT22;56184;51.986;5.760;2023-02-28T15:57:53;16.60;31.20
69082;DHT22;56184;51.986;5.760;2023-02-28T16:00:22;16.30;31.60
69082;DHT22;56184;51.986;5.760;2023-02-28T16:02:48;16.10;33.40
69082;DHT22;56184;51.986;5.760;2023-02-28T16:05:28;15.90;34.10
69082;DHT22;56184;51.986;5.760;2023-02-28T16:08:06;15.70;32.80
69082;DHT22;56184;51.986;5.760;2023-02-28T16:10:36;15.50;38.70
69082;DHT22;56184;51.986;5.760;2023-02-28T16:13:02;15.30;37.80
69082;DHT22;56184;51.986;5.760;2023-02-28T16:15:37;15.00;36.00
69082;DHT22;56184;51.986;5.760;2023-02-28T16:18:12;14.80;36.10
69082;DHT22;56184;51.986;5.760;2023-02-28T16:20:38;14.40;35.70
69082;DHT22;56184;51.986;5.760;2023-02-28T16:23:04;14.20;37.90
69082;DHT22;56184;51.986;5.760;2023-02-28T16:25:37;13.90;37.80
69082;DHT22;56184;51.986;5.760;2023-02-28T16:28:04;13.50;41.50
69082;DHT22;56184;51.986;5.760;2023-02-28T16:30:33;13.20;41.40
69082;DHT22;56184;51.986;5.760;2023-02-28T16:32:59;13.10;43.90
69082;DHT22;56184;51.986;5.760;2023-02-28T16:35:25;12.80;38.90
69082;DHT22;56184;51.986;5.760;2023-02-28T16:37:51;12.70;41.60
69082;DHT22;56184;51.986;5.760;2023-02-28T16:40:20;12.50;45.00
69082;DHT22;56184;51.986;5.760;2023-02-28T16:42:47;12.20;42.80
69082;DHT22;56184;51.986;5.760;2023-02-28T16:45:19;12.00;41.80
69082;DHT22;56184;51.986;5.760;2023-02-28T16:47:46;11.80;43.20
69082;DHT22;56184;51.986;5.760;2023-02-28T16:50:32;11.70;43.60
69082;DHT22;56184;51.986;5.760;2023-02-28T16:52:58;11.50;47.60
69082;DHT22;56184;51.986;5.760;2023-02-28T16:55:26;11.20;48.30
69082;DHT22;56184;51.986;5.760;2023-02-28T16:57:54;11.10;48.90
69082;DHT22;56184;51.986;5.760;2023-02-28T17:00:21;10.90;45.70
69082;DHT22;56184;51.986;5.760;2023-02-28T17:02:47;10.80;47.40
69082;DHT22;56184;51.986;5.760;2023-02-28T17:05:13;10.60;48.00
69082;DHT22;56184;51.986;5.760;2023-02-28T17:07:41;10.40;49.80
69082;DHT22;56184;51.986;5.760;2023-02-28T17:10:18;10.30;50.30
69082;DHT22;56184;51.986;5.760;2023-02-28T17:12:44;10.20;51.30
69082;DHT22;56184;51.986;5.760;2023-02-28T17:15:11;10.00;51.30
69082;DHT22;56184;51.986;5.760;2023-02-28T17:17:37;9.80;51.80
69082;DHT22;56184;51.986;5.760;2023-02-28T17:20:03;9.70;52.80
69082;DHT22;56184;51.986;5.760;2023-02-28T17:22:29;9.50;51.90
69082;DHT22;56184;51.986;5.760;2023-02-28T17:24:54;9.40;53.90
69082;DHT22;56184;51.986;5.760;2023-02-28T17:27:24;9.20;52.80
69082;DHT22;56184;51.986;5.760;2023-02-28T17:29:50;9.10;54.90
69082;DHT22;56184;51.986;5.760;2023-02-28T17:32:16;9.00;53.50
69082;DHT22;56184;51.986;5.760;2023-02-28T17:34:41;8.80;53.20
69082;DHT22;56184;51.986;5.760;2023-02-28T17:37:09;8.60;52.90
69082;DHT22;56184;51.986;5.760;2023-02-28T17:39:34;8.40;52.80
69082;DHT22;56184;51.986;5.760;2023-02-28T17:42:00;8.30;55.80
69082;DHT22;56184;51.986;5.760;2023-02-28T17:44:26;8.20;54.50
69082;DHT22;56184;51.986;5.760;2023-02-28T17:46:55;8.10;55.40
69082;DHT22;56184;51.986;5.760;2023-02-28T17:49:21;8.00;55.70
69082;DHT22;56184;51.986;5.760;2023-02-28T17:51:48;7.90;56.40
69082;DHT22;56184;51.986;5.760;2023-02-28T17:54:14;7.80;58.10
69082;DHT22;56184;51.986;5.760;2023-02-28T17:56:40;7.70;57.50
69082;DHT22;56184;51.986;5.760;2023-02-28T17:59:09;7.60;57.80
69082;DHT22;56184;51.986;5.760;2023-02-28T18:01:39;7.50;58.30
69082;DHT22;56184;51.986;5.760;2023-02-28T18:04:04;7.40;58.50
69082;DHT22;56184;51.986;5.760;2023-02-28T18:06:39;7.30;59.30
69082;DHT22;56184;51.986;5.760;2023-02-28T18:09:17;7.20;59.10
69082;DHT22;56184;51.986;5.760;2023-02-28T18:11:43;7.10;59.50
69082;DHT22;56184;51.986;5.760;2023-02-28T18:14:14;7.00;59.00
69082;DHT22;56184;51.986;5.760;2023-02-28T18:16:42;6.90;58.60
69082;DHT22;56184;51.986;5.760;2023-02-28T18:19:08;6.80;59.10
69082;DHT22;56184;51.986;5.760;2023-02-28T18:21:40;6.70;60.20
69082;DHT22;56184;51.986;5.760;2023-02-28T18:24:06;6.50;57.40
69082;DHT22;56184;51.986;5.760;2023-02-28T18:26:32;6.30;59.20
69082;DHT22;56184;51.986;5.760;2023-02-28T18:28:58;6.20;60.30
69082;DHT22;56184;51.986;5.760;2023-02-28T18:31:23;6.10;62.20
69082;DHT22;56184;51.986;5.760;2023-02-28T18:33:50;6.10;61.20
69082;DHT22;56184;51.986;5.760;2023-02-28T18:36:18;6.10;62.60
69082;DHT22;56184;51.986;5.760;2023-02-28T18:38:43;6.00;62.20
69082;DHT22;56184;51.986;5.760;2023-02-28T18:41:12;5.90;61.70
69082;DHT22;56184;51.986;5.760;2023-02-28T18:43:38;5.90;63.30
69082;DHT22;56184;51.986;5.760;2023-02-28T18:46:05;5.70;63.00
69082;DHT22;56184;51.986;5.760;2023-02-28T18:48:31;5.70;62.60
69082;DHT22;56184;51.986;5.760;2023-02-28T18:50:57;5.60;63.10
69082;DHT22;56184;51.986;5.760;2023-02-28T18:53:23;5.50;63.40
69082;DHT22;56184;51.986;5.760;2023-02-28T18:55:48;5.40;64.30
69082;DHT22;56184;51.986;5.760;2023-02-28T18:58:14;5.30;64.30
69082;DHT22;56184;51.986;5.760;2023-02-28T19:00:40;5.20;64.60
69082;DHT22;56184;51.986;5.760;2023-02-28T19:03:06;5.10;64.70
69082;DHT22;56184;51.986;5.760;2023-02-28T19:05:32;5.00;63.00
69082;DHT22;56184;51.986;5.760;2023-02-28T19:08:02;4.90;63.10
69082;DHT22;56184;51.986;5.760;2023-02-28T19:10:29;4.90;63.80
69082;DHT22;56184;51.986;5.760;2023-02-28T19:12:55;4.80;63.90
69082;DHT22;56184;51.986;5.760;2023-02-28T19:15:21;4.70;65.50
69082;DHT22;56184;51.986;5.760;2023-02-28T19:17:46;4.60;64.60
69082;DHT22;56184;51.986;5.760;2023-02-28T19:20:12;4.50;65.20
69082;DHT22;56184;51.986;5.760;2023-02-28T19:22:38;4.40;65.20
69082;DHT22;56184;51.986;5.760;2023-02-28T19:25:05;4.30;66.00
69082;DHT22;56184;51.986;5.760;2023-02-28T19:27:31;4.30;66.20
69082;DHT22;56184;51.986;5.760;2023-02-28T19:29:56;4.20;65.80
69082;DHT22;56184;51.986;5.760;2023-02-28T19:32:24;4.20;66.60
69082;DHT22;56184;51.986;5.760;2023-02-28T19:34:50;4.10;67.50
69082;DHT22;56184;51.986;5.760;2023-02-28T19:37:16;4.00;67.50
69082;DHT22;56184;51.986;5.760;2023-02-28T19:39:43;3.90;68.40
69082;DHT22;56184;51.986;5.760;2023-02-28T19:42:14;3.80;68.00
69082;DHT22;56184;51.986;5.760;2023-02-28T19:44:40;3.80;69.20
69082;DHT22;56184;51.986;5.760;2023-02-28T19:47:06;3.80;68.20
69082;DHT22;56184;51.986;5.760;2023-02-28T19:49:32;3.70;67.60
69082;DHT22;56184;51.986;5.760;2023-02-28T19:51:59;3.70;66.80
69082;DHT22;56184;51.986;5.760;2023-02-28T19:54:25;3.60;67.20
69082;DHT22;56184;51.986;5.760;2023-02-28T19:56:52;3.50;67.30
69082;DHT22;56184;51.986;5.760;2023-02-28T19:59:25;3.50;67.20
69082;DHT22;56184;51.986;5.760;2023-02-28T20:01:52;3.40;67.30